sensor_id;sensor_type;location;lat;lon;timestamp;temperature;humidity
7574;DHT22;3828;48.922;9.116;2022-08-19T00:01:59;22.30;99.90
7574;DHT22;3828;48.922;9.116;2022-08-19T00:04:29;21.20;99.90
7574;DHT22;3828;48.922;9.116;2022-08-19T00:06:57;21.60;99.90
7574;DHT22;3828;48.922;9.116;2022-08-19T00:09:25;22.20;99.90
7574;DHT22;3828;48.922;9.116;2022-08-19T00:11:53;21.20;99.90
7574;DHT22;3828;48.922;9.116;2022-08-19T00:14:20;21.20;99.90
7574;DHT22;3828;48.922;9.116;2022-08-19T00:16:49;22.10;99.90
7574;DHT22;3828;48.922;9.116;2022-08-19T00:19:17;21.20;99.90
7574;DHT22;3828;48.922;9.116;2022-08-19T00:21:45;21.10;99.90
7574;DHT22;3828;48.922;9.116;2022-08-19T00:24:13;21.10;99.90
7574;DHT22;3828;48.922;9.116;2022-08-19T00:26:42;21.60;99.90
7574;DHT22;3828;48.922;9.116;2022-08-19T00:29:10;21.10;99.90
7574;DHT22;3828;48.922;9.116;2022-08-19T00:31:37;21.10;99.90
7574;DHT22;3828;48.922;9.116;2022-08-19T00:34:04;21.10;99.90
7574;DHT22;3828;48.922;9.116;2022-08-19T00:36:31;23.00;99.90
7574;DHT22;3828;48.922;9.116;2022-08-19T00:39:00;23.70;99.90
7574;DHT22;3828;48.922;9.116;2022-08-19T00:41:27;22.00;99.90
7574;DHT22;3828;48.922;9.116;2022-08-19T00:44:03;21.10;99.90
7574;DHT22;3828;48.922;9.116;2022-08-19T00:46:30;23.00;99.90
7574;DHT22;3828;48.922;9.116;2022-08-19T00:48:59;21.00;99.90
7574;DHT22;3828;48.922;9.116;2022-08-19T00:51:27;21.10;99.90
7574;DHT22;3828;48.922;9.116;2022-08-19T00:53:59;21.10;99.90
7574;DHT22;3828;48.922;9.116;2022-08-19T00:56:27;23.20;99.90
7574;DHT22;3828;48.922;9.116;2022-08-19T00:58:55;21.40;99.90
7574;DHT22;3828;48.922;9.116;2022-08-19T01:01:23;20.90;99.90
7574;DHT22;3828;48.922;9.116;2022-08-19T01:03:50;20.90;99.90
7574;DHT22;3828;48.922;9.116;2022-08-19T01:06:17;21.00;99.90
7574;DHT22;3828;48.922;9.116;2022-08-19T01:08:43;23.80;99.90
7574;DHT22;3828;48.922;9.116;2022-08-19T01:11:12;23.30;99.90
7574;DHT22;3828;48.922;9.116;2022-08-19T01:13:39;21.90;99.90
7574;DHT22;3828;48.922;9.116;2022-08-19T01:16:09;21.40;99.90
7574;DHT22;3828;48.922;9.116;2022-08-19T01:18:39;22.10;99.90
7574;DHT22;3828;48.922;9.116;2022-08-19T01:21:10;22.40;99.90
7574;DHT22;3828;48.922;9.116;2022-08-19T01:23:43;20.90;99.90
7574;DHT22;3828;48.922;9.116;2022-08-19T01:26:12;20.90;99.90
7574;DHT22;3828;48.922;9.116;2022-08-19T01:28:40;21.20;99.90
7574;DHT22;3828;48.922;9.116;2022-08-19T01:31:09;20.90;99.90
7574;DHT22;3828;48.922;9.116;2022-08-19T01:33:37;20.90;99.90
7574;DHT22;3828;48.922;9.116;2022-08-19T01:36:06;21.10;99.90
7574;DHT22;3828;48.922;9.116;2022-08-19T01:38:36;20.80;99.90
7574;DHT22;3828;48.922;9.116;2022-08-19T01:41:05;21.80;99.90
7574;DHT22;3828;48.922;9.116;2022-08-19T01:43:33;20.80;99.90
7574;DHT22;3828;48.922;9.116;2022-08-19T01:46:00;22.80;99.90
7574;DHT22;3828;48.922;9.116;2022-08-19T01:48:33;20.80;99.90
7574;DHT22;3828;48.922;9.116;2022-08-19T01:51:00;22.50;99.90
7574;DHT22;3828;48.922;9.116;2022-08-19T01:53:27;20.80;99.90
7574;DHT22;3828;48.922;9.116;2022-08-19T01:55:54;20.80;99.90
7574;DHT22;3828;48.922;9.116;2022-08-19T01:58:24;20.80;99.90
7574;DHT22;3828;48.922;9.116;2022-08-19T02:00:53;20.80;99.90
7574;DHT22;3828;48.922;9.116;2022-08-19T02:03:20;20.70;99.90
7574;DHT22;3828;48.922;9.116;2022-08-19T02:05:47;20.70;99.90
7574;DHT22;3828;48.922;9.116;2022-08-19T02:08:16;20.70;99.90
7574;DHT22;3828;48.922;9.116;2022-08-19T02:10:43;20.70;99.90
7574;DHT22;3828;48.922;9.116;2022-08-19T02:13:11;20.70;99.90
7574;DHT22;3828;48.922;9.116;2022-08-19T02:15:40;20.70;99.90
7574;DHT22;3828;48.922;9.116;2022-08-19T02:18:07;20.80;99.90
7574;DHT22;3828;48.922;9.116;2022-08-19T02:20:35;20.60;99.90
7574;DHT22;3828;48.922;9.116;2022-08-19T02:23:02;20.60;99.90
7574;DHT22;3828;48.922;9.116;2022-08-19T02:25:29;20.60;99.90
7574;DHT22;3828;48.922;9.116;2022-08-19T02:27:55;20.60;99.90
7574;DHT22;3828;48.922;9.116;2022-08-19T02:30:22;20.60;99.90
7574;DHT22;3828;48.922;9.116;2022-08-19T02:32:51;20.60;99.90
7574;DHT22;3828;48.922;9.116;2022-08-19T02:35:18;20.50;99.90
7574;DHT22;3828;48.922;9.116;2022-08-19T02:37:45;20.50;99.90
7574;DHT22;3828;48.922;9.116;2022-08-19T02:40:30;21.60;99.90
7574;DHT22;3828;48.922;9.116;2022-08-19T02:42:57;22.90;99.90
7574;DHT22;3828;48.922;9.116;2022-08-19T02:45:24;21.00;99.90
7574;DHT22;3828;48.922;9.116;2022-08-19T02:47:52;23.00;99.90
7574;DHT22;3828;48.922;9.116;2022-08-19T02:50:19;23.30;99.90
7574;DHT22;3828;48.922;9.116;2022-08-19T02:52:46;20.40;99.90
7574;DHT22;3828;48.922;9.116;2022-08-19T02:55:13;22.10;99.90
7574;DHT22;3828;48.922;9.116;2022-08-19T02:57:40;21.70;99.90
7574;DHT22;3828;48.922;9.116;2022-08-19T03:00:08;20.40;99.90
7574;DHT22;3828;48.922;9.116;2022-08-19T03:02:37;20.30;99.90
7574;DHT22;3828;48.922;9.116;2022-08-19T03:05:07;21.60;99.90
7574;DHT22;3828;48.922;9.116;2022-08-19T03:07:37;20.30;99.90
7574;DHT22;3828;48.922;9.116;2022-08-19T03:10:05;21.50;99.90
7574;DHT22;3828;48.922;9.116;2022-08-19T03:12:35;20.20;99.90
7574;DHT22;3828;48.922;9.116;2022-08-19T03:15:03;20.20;99.90
7574;DHT22;3828;48.922;9.116;2022-08-19T03:17:31;20.10;99.90
7574;DHT22;3828;48.922;9.116;2022-08-19T03:20:00;20.20;99.90
7574;DHT22;3828;48.922;9.116;2022-08-19T03:22:28;21.20;99.90
7574;DHT22;3828;48.922;9.116;2022-08-19T03:24:55;20.10;99.90
7574;DHT22;3828;48.922;9.116;2022-08-19T03:27:22;20.00;99.90
7574;DHT22;3828;48.922;9.116;2022-08-19T03:29:49;22.00;99.90
7574;DHT22;3828;48.922;9.116;2022-08-19T03:32:16;20.00;99.90
7574;DHT22;3828;48.922;9.116;2022-08-19T03:34:43;20.70;99.90
7574;DHT22;3828;48.922;9.116;2022-08-19T03:37:11;20.10;99.90
7574;DHT22;3828;48.922;9.116;2022-08-19T03:39:40;22.10;99.90
7574;DHT22;3828;48.922;9.116;2022-08-19T03:42:10;20.10;99.90
7574;DHT22;3828;48.922;9.116;2022-08-19T03:47:05;20.00;99.90
7574;DHT22;3828;48.922;9.116;2022-08-19T03:49:33;19.90;99.90
7574;DHT22;3828;48.922;9.116;2022-08-19T03:52:01;20.80;99.90
7574;DHT22;3828;48.922;9.116;2022-08-19T03:54:30;21.30;99.90
7574;DHT22;3828;48.922;9.116;2022-08-19T03:56:58;20.00;99.90
7574;DHT22;3828;48.922;9.116;2022-08-19T03:59:28;21.10;99.90
7574;DHT22;3828;48.922;9.116;2022-08-19T04:01:57;21.30;99.90
7574;DHT22;3828;48.922;9.116;2022-08-19T04:04:24;19.90;99.90
7574;DHT22;3828;48.922;9.116;2022-08-19T04:06:52;20.60;99.90
7574;DHT22;3828;48.922;9.116;2022-08-19T04:09:19;21.30;99.90
7574;DHT22;3828;48.922;9.116;2022-08-19T04:11:49;20.90;99.90
7574;DHT22;3828;48.922;9.116;2022-08-19T04:14:22;19.80;99.90
7574;DHT22;3828;48.922;9.116;2022-08-19T04:16:50;19.80;99.90
7574;DHT22;3828;48.922;9.116;2022-08-19T04:19:18;19.80;99.90
7574;DHT22;3828;48.922;9.116;2022-08-19T04:21:47;19.80;99.90
7574;DHT22;3828;48.922;9.116;2022-08-19T04:24:14;19.80;99.90
7574;DHT22;3828;48.922;9.116;2022-08-19T04:26:41;20.70;99.90
7574;DHT22;3828;48.922;9.116;2022-08-19T04:29:14;20.90;99.90
7574;DHT22;3828;48.922;9.116;2022-08-19T04:31:43;19.80;99.90
7574;DHT22;3828;48.922;9.116;2022-08-19T04:34:12;19.80;99.90
7574;DHT22;3828;48.922;9.116;2022-08-19T04:36:41;19.80;99.90
7574;DHT22;3828;48.922;9.116;2022-08-19T04:39:12;19.80;99.90
7574;DHT22;3828;48.922;9.116;2022-08-19T04:41:39;19.80;99.90
7574;DHT22;3828;48.922;9.116;2022-08-19T04:44:23;19.80;99.90
7574;DHT22;3828;48.922;9.116;2022-08-19T04:46:52;19.80;99.90
7574;DHT22;3828;48.922;9.116;2022-08-19T04:49:21;19.80;99.90
7574;DHT22;3828;48.922;9.116;2022-08-19T04:51:49;21.70;99.90
7574;DHT22;3828;48.922;9.116;2022-08-19T04:54:18;22.10;99.90
7574;DHT22;3828;48.922;9.116;2022-08-19T04:56:47;19.80;99.90
7574;DHT22;3828;48.922;9.116;2022-08-19T04:59:15;20.40;99.90
7574;DHT22;3828;48.922;9.116;2022-08-19T05:01:44;20.10;99.90
7574;DHT22;3828;48.922;9.116;2022-08-19T05:04:18;19.80;99.90
7574;DHT22;3828;48.922;9.116;2022-08-19T05:06:46;19.80;99.90
7574;DHT22;3828;48.922;9.116;2022-08-19T05:09:13;19.80;99.90
7574;DHT22;3828;48.922;9.116;2022-08-19T05:11:40;19.90;99.90
7574;DHT22;3828;48.922;9.116;2022-08-19T05:14:08;20.00;99.90
7574;DHT22;3828;48.922;9.116;2022-08-19T05:16:38;19.90;99.90
7574;DHT22;3828;48.922;9.116;2022-08-19T05:19:05;19.90;99.90
7574;DHT22;3828;48.922;9.116;2022-08-19T05:21:51;22.60;99.90
7574;DHT22;3828;48.922;9.116;2022-08-19T05:24:36;20.00;99.90
7574;DHT22;3828;48.922;9.116;2022-08-19T05:27:03;21.60;99.90
7574;DHT22;3828;48.922;9.116;2022-08-19T05:29:32;20.00;99.90
7574;DHT22;3828;48.922;9.116;2022-08-19T05:32:00;20.00;99.90
7574;DHT22;3828;48.922;9.116;2022-08-19T05:34:27;20.00;99.90
7574;DHT22;3828;48.922;9.116;2022-08-19T05:36:57;20.10;99.90
7574;DHT22;3828;48.922;9.116;2022-08-19T05:39:26;20.10;99.90
7574;DHT22;3828;48.922;9.116;2022-08-19T05:41:56;20.30;99.90
7574;DHT22;3828;48.922;9.116;2022-08-19T05:44:24;20.00;99.90
7574;DHT22;3828;48.922;9.116;2022-08-19T05:46:51;23.00;99.90
7574;DHT22;3828;48.922;9.116;2022-08-19T05:49:21;20.70;99.90
7574;DHT22;3828;48.922;9.116;2022-08-19T05:51:49;23.30;99.90
7574;DHT22;3828;48.922;9.116;2022-08-19T05:54:17;22.60;99.90
7574;DHT22;3828;48.922;9.116;2022-08-19T05:56:45;23.30;99.90
7574;DHT22;3828;48.922;9.116;2022-08-19T05:59:13;20.00;99.90
7574;DHT22;3828;48.922;9.116;2022-08-19T06:01:43;20.00;99.90
7574;DHT22;3828;48.922;9.116;2022-08-19T06:04:10;20.90;99.90
7574;DHT22;3828;48.922;9.116;2022-08-19T06:06:39;20.00;99.90
7574;DHT22;3828;48.922;9.116;2022-08-19T06:09:07;21.20;99.90
7574;DHT22;3828;48.922;9.116;2022-08-19T06:11:38;20.00;99.90
7574;DHT22;3828;48.922;9.116;2022-08-19T06:14:08;23.10;99.90
7574;DHT22;3828;48.922;9.116;2022-08-19T06:16:35;20.00;99.90
7574;DHT22;3828;48.922;9.116;2022-08-19T06:19:06;22.90;99.90
7574;DHT22;3828;48.922;9.116;2022-08-19T06:21:34;20.10;99.90
7574;DHT22;3828;48.922;9.116;2022-08-19T06:24:02;20.10;99.90
7574;DHT22;3828;48.922;9.116;2022-08-19T06:26:30;21.70;99.90
7574;DHT22;3828;48.922;9.116;2022-08-19T06:28:58;20.10;99.90
7574;DHT22;3828;48.922;9.116;2022-08-19T06:31:27;20.20;99.90
7574;DHT22;3828;48.922;9.116;2022-08-19T06:33:54;20.20;99.90
7574;DHT22;3828;48.922;9.116;2022-08-19T06:36:23;20.30;99.90
7574;DHT22;3828;48.922;9.116;2022-08-19T06:38:53;20.30;99.90
7574;DHT22;3828;48.922;9.116;2022-08-19T06:41:20;20.30;99.90
7574;DHT22;3828;48.922;9.116;2022-08-19T06:43:46;20.40;99.90
7574;DHT22;3828;48.922;9.116;2022-08-19T06:46:16;20.40;99.90
7574;DHT22;3828;48.922;9.116;2022-08-19T06:48:44;20.50;99.90
7574;DHT22;3828;48.922;9.116;2022-08-19T06:51:11;20.50;99.90
7574;DHT22;3828;48.922;9.116;2022-08-19T06:53:40;20.50;99.90
7574;DHT22;3828;48.922;9.116;2022-08-19T06:56:13;20.60;99.90
7574;DHT22;3828;48.922;9.116;2022-08-19T06:58:39;20.60;99.90
7574;DHT22;3828;48.922;9.116;2022-08-19T07:01:06;20.70;99.90
7574;DHT22;3828;48.922;9.116;2022-08-19T07:03:36;20.70;99.90
7574;DHT22;3828;48.922;9.116;2022-08-19T07:06:04;20.80;99.90
7574;DHT22;3828;48.922;9.116;2022-08-19T07:08:32;20.80;99.90
7574;DHT22;3828;48.922;9.116;2022-08-19T07:11:01;20.80;99.90
7574;DHT22;3828;48.922;9.116;2022-08-19T07:13:28;20.90;99.90
7574;DHT22;3828;48.922;9.116;2022-08-19T07:15:57;20.90;99.90
7574;DHT22;3828;48.922;9.116;2022-08-19T07:18:24;23.90;99.90
7574;DHT22;3828;48.922;9.116;2022-08-19T07:21:02;21.10;99.90
7574;DHT22;3828;48.922;9.116;2022-08-19T07:23:29;21.20;99.90
7574;DHT22;3828;48.922;9.116;2022-08-19T07:25:56;21.30;99.90
7574;DHT22;3828;48.922;9.116;2022-08-19T07:28:23;22.70;99.90
7574;DHT22;3828;48.922;9.116;2022-08-19T07:30:49;23.60;99.90
7574;DHT22;3828;48.922;9.116;2022-08-19T07:33:16;21.60;99.90
7574;DHT22;3828;48.922;9.116;2022-08-19T07:35:43;21.60;99.90
7574;DHT22;3828;48.922;9.116;2022-08-19T07:38:11;21.60;99.90
7574;DHT22;3828;48.922;9.116;2022-08-19T07:40:38;23.40;99.90
7574;DHT22;3828;48.922;9.116;2022-08-19T07:43:06;21.50;99.90
7574;DHT22;3828;48.922;9.116;2022-08-19T07:45:33;21.50;99.90
7574;DHT22;3828;48.922;9.116;2022-08-19T07:48:00;21.40;99.90
7574;DHT22;3828;48.922;9.116;2022-08-19T07:50:27;21.40;99.90
7574;DHT22;3828;48.922;9.116;2022-08-19T07:52:54;23.70;99.90
7574;DHT22;3828;48.922;9.116;2022-08-19T07:55:25;21.50;99.90
7574;DHT22;3828;48.922;9.116;2022-08-19T07:57:52;21.40;99.90
7574;DHT22;3828;48.922;9.116;2022-08-19T08:00:19;22.00;99.90
7574;DHT22;3828;48.922;9.116;2022-08-19T08:02:46;21.30;99.90
7574;DHT22;3828;48.922;9.116;2022-08-19T08:05:12;21.30;99.90
7574;DHT22;3828;48.922;9.116;2022-08-19T08:07:57;21.30;99.90
7574;DHT22;3828;48.922;9.116;2022-08-19T08:10:42;21.90;99.90
7574;DHT22;3828;48.922;9.116;2022-08-19T08:13:09;21.30;99.90
7574;DHT22;3828;48.922;9.116;2022-08-19T08:15:36;22.40;99.90
7574;DHT22;3828;48.922;9.116;2022-08-19T08:18:04;23.70;99.90
7574;DHT22;3828;48.922;9.116;2022-08-19T08:20:31;22.80;99.90
7574;DHT22;3828;48.922;9.116;2022-08-19T08:22:58;21.50;99.90
7574;DHT22;3828;48.922;9.116;2022-08-19T08:25:43;21.40;99.90
7574;DHT22;3828;48.922;9.116;2022-08-19T08:28:10;21.40;99.90
7574;DHT22;3828;48.922;9.116;2022-08-19T08:30:37;21.40;99.90
7574;DHT22;3828;48.922;9.116;2022-08-19T08:33:07;23.30;99.90
7574;DHT22;3828;48.922;9.116;2022-08-19T08:35:35;23.00;99.90
7574;DHT22;3828;48.922;9.116;2022-08-19T08:38:02;21.40;99.90
7574;DHT22;3828;48.922;9.116;2022-08-19T08:40:33;22.30;99.90
7574;DHT22;3828;48.922;9.116;2022-08-19T08:43:08;23.10;99.90
7574;DHT22;3828;48.922;9.116;2022-08-19T08:45:41;22.20;99.90
7574;DHT22;3828;48.922;9.116;2022-08-19T08:48:17;21.60;99.90
7574;DHT22;3828;48.922;9.116;2022-08-19T08:50:45;22.30;99.90
7574;DHT22;3828;48.922;9.116;2022-08-19T08:53:16;24.60;99.90
7574;DHT22;3828;48.922;9.116;2022-08-19T08:55:44;21.60;99.90
7574;DHT22;3828;48.922;9.116;2022-08-19T08:58:16;22.70;99.90
7574;DHT22;3828;48.922;9.116;2022-08-19T09:00:46;23.50;99.90
7574;DHT22;3828;48.922;9.116;2022-08-19T09:03:18;21.80;99.90
7574;DHT22;3828;48.922;9.116;2022-08-19T09:05:53;23.00;99.90
7574;DHT22;3828;48.922;9.116;2022-08-19T09:08:29;22.60;99.90
7574;DHT22;3828;48.922;9.116;2022-08-19T09:11:03;22.80;99.90
7574;DHT22;3828;48.922;9.116;2022-08-19T09:13:42;25.30;99.90
7574;DHT22;3828;48.922;9.116;2022-08-19T09:16:19;23.90;99.90
7574;DHT22;3828;48.922;9.116;2022-08-19T09:18:48;22.80;99.90
7574;DHT22;3828;48.922;9.116;2022-08-19T09:21:18;23.00;99.90
7574;DHT22;3828;48.922;9.116;2022-08-19T09:23:45;23.10;99.90
7574;DHT22;3828;48.922;9.116;2022-08-19T09:26:14;23.10;99.90
7574;DHT22;3828;48.922;9.116;2022-08-19T09:28:44;23.20;99.90
7574;DHT22;3828;48.922;9.116;2022-08-19T09:31:12;23.40;99.90
7574;DHT22;3828;48.922;9.116;2022-08-19T09:33:39;25.10;99.90
7574;DHT22;3828;48.922;9.116;2022-08-19T09:36:08;23.10;99.90
7574;DHT22;3828;48.922;9.116;2022-08-19T09:38:36;23.00;99.90
7574;DHT22;3828;48.922;9.116;2022-08-19T09:41:06;23.00;99.90
7574;DHT22;3828;48.922;9.116;2022-08-19T09:43:33;23.80;99.90
7574;DHT22;3828;48.922;9.116;2022-08-19T09:46:04;22.90;99.90
7574;DHT22;3828;48.922;9.116;2022-08-19T09:48:31;22.70;99.90
7574;DHT22;3828;48.922;9.116;2022-08-19T09:51:03;24.80;99.90
7574;DHT22;3828;48.922;9.116;2022-08-19T09:53:30;22.70;99.90
7574;DHT22;3828;48.922;9.116;2022-08-19T09:55:57;22.90;99.90
7574;DHT22;3828;48.922;9.116;2022-08-19T09:58:24;24.70;99.90
7574;DHT22;3828;48.922;9.116;2022-08-19T10:00:53;22.80;99.90
7574;DHT22;3828;48.922;9.116;2022-08-19T10:03:21;22.80;99.90
7574;DHT22;3828;48.922;9.116;2022-08-19T10:05:49;25.80;99.90
7574;DHT22;3828;48.922;9.116;2022-08-19T10:08:18;22.90;99.90
7574;DHT22;3828;48.922;9.116;2022-08-19T10:10:46;23.00;99.90
7574;DHT22;3828;48.922;9.116;2022-08-19T10:13:15;23.00;99.90
7574;DHT22;3828;48.922;9.116;2022-08-19T10:15:42;23.90;99.90
7574;DHT22;3828;48.922;9.116;2022-08-19T10:18:09;23.00;99.90
7574;DHT22;3828;48.922;9.116;2022-08-19T10:20:37;23.10;99.90
7574;DHT22;3828;48.922;9.116;2022-08-19T10:23:04;23.10;99.90
7574;DHT22;3828;48.922;9.116;2022-08-19T10:25:32;23.20;99.90
7574;DHT22;3828;48.922;9.116;2022-08-19T10:28:00;23.20;99.90
7574;DHT22;3828;48.922;9.116;2022-08-19T10:30:27;23.20;99.90
7574;DHT22;3828;48.922;9.116;2022-08-19T10:32:54;23.50;99.90
7574;DHT22;3828;48.922;9.116;2022-08-19T10:35:21;23.50;99.90
7574;DHT22;3828;48.922;9.116;2022-08-19T10:37:49;26.00;99.90
7574;DHT22;3828;48.922;9.116;2022-08-19T10:40:16;23.80;99.90
7574;DHT22;3828;48.922;9.116;2022-08-19T10:42:42;23.90;99.90
7574;DHT22;3828;48.922;9.116;2022-08-19T10:45:10;23.90;99.90
7574;DHT22;3828;48.922;9.116;2022-08-19T10:47:37;24.10;99.90
7574;DHT22;3828;48.922;9.116;2022-08-19T10:50:10;25.70;99.90
7574;DHT22;3828;48.922;9.116;2022-08-19T10:52:56;23.30;99.90
7574;DHT22;3828;48.922;9.116;2022-08-19T10:55:24;24.60;99.90
7574;DHT22;3828;48.922;9.116;2022-08-19T10:58:13;25.10;99.90
7574;DHT22;3828;48.922;9.116;2022-08-19T11:00:40;24.60;99.90
7574;DHT22;3828;48.922;9.116;2022-08-19T11:03:08;24.50;99.90
7574;DHT22;3828;48.922;9.116;2022-08-19T11:05:35;24.40;99.90
7574;DHT22;3828;48.922;9.116;2022-08-19T11:08:04;25.20;99.90
7574;DHT22;3828;48.922;9.116;2022-08-19T11:10:32;24.10;99.90
7574;DHT22;3828;48.922;9.116;2022-08-19T11:12:59;24.90;99.90
7574;DHT22;3828;48.922;9.116;2022-08-19T11:15:26;23.90;99.90
7574;DHT22;3828;48.922;9.116;2022-08-19T11:17:54;23.80;99.90
7574;DHT22;3828;48.922;9.116;2022-08-19T11:20:21;24.30;99.90
7574;DHT22;3828;48.922;9.116;2022-08-19T11:22:51;23.80;99.90
7574;DHT22;3828;48.922;9.116;2022-08-19T11:25:19;25.80;99.90
7574;DHT22;3828;48.922;9.116;2022-08-19T11:27:46;23.90;99.90
7574;DHT22;3828;48.922;9.116;2022-08-19T11:30:17;23.90;99.90
7574;DHT22;3828;48.922;9.116;2022-08-19T11:32:44;24.10;99.90
7574;DHT22;3828;48.922;9.116;2022-08-19T11:35:11;24.50;99.90
7574;DHT22;3828;48.922;9.116;2022-08-19T11:37:38;26.20;99.90
7574;DHT22;3828;48.922;9.116;2022-08-19T11:40:07;23.30;99.90
7574;DHT22;3828;48.922;9.116;2022-08-19T11:42:35;24.10;99.90
7574;DHT22;3828;48.922;9.116;2022-08-19T11:45:19;25.50;99.90
7574;DHT22;3828;48.922;9.116;2022-08-19T11:47:46;24.20;99.90
7574;DHT22;3828;48.922;9.116;2022-08-19T11:50:13;24.30;99.90
7574;DHT22;3828;48.922;9.116;2022-08-19T11:52:40;24.40;99.90
7574;DHT22;3828;48.922;9.116;2022-08-19T11:55:08;24.60;99.90
7574;DHT22;3828;48.922;9.116;2022-08-19T11:57:36;24.60;99.90
7574;DHT22;3828;48.922;9.116;2022-08-19T12:00:05;24.80;99.90
7574;DHT22;3828;48.922;9.116;2022-08-19T12:02:32;24.80;99.90
7574;DHT22;3828;48.922;9.116;2022-08-19T12:04:59;25.60;99.90
7574;DHT22;3828;48.922;9.116;2022-08-19T12:07:28;24.70;99.90
7574;DHT22;3828;48.922;9.116;2022-08-19T12:09:55;24.50;99.90
7574;DHT22;3828;48.922;9.116;2022-08-19T12:12:22;24.40;99.90
7574;DHT22;3828;48.922;9.116;2022-08-19T12:14:54;24.30;99.90
7574;DHT22;3828;48.922;9.116;2022-08-19T12:17:23;24.30;99.90
7574;DHT22;3828;48.922;9.116;2022-08-19T12:19:51;24.20;99.90
7574;DHT22;3828;48.922;9.116;2022-08-19T12:22:17;26.80;99.90
7574;DHT22;3828;48.922;9.116;2022-08-19T12:24:46;24.30;99.90
7574;DHT22;3828;48.922;9.116;2022-08-19T12:27:13;24.40;99.90
7574;DHT22;3828;48.922;9.116;2022-08-19T12:29:40;27.50;99.90
7574;DHT22;3828;48.922;9.116;2022-08-19T12:32:08;25.50;99.90
7574;DHT22;3828;48.922;9.116;2022-08-19T12:34:35;24.70;99.90
7574;DHT22;3828;48.922;9.116;2022-08-19T12:37:04;24.80;99.90
7574;DHT22;3828;48.922;9.116;2022-08-19T12:39:34;24.90;99.90
7574;DHT22;3828;48.922;9.116;2022-08-19T12:42:01;26.80;99.90
7574;DHT22;3828;48.922;9.116;2022-08-19T12:44:30;26.40;99.90
7574;DHT22;3828;48.922;9.116;2022-08-19T12:46:57;26.10;99.90
7574;DHT22;3828;48.922;9.116;2022-08-19T12:49:27;25.30;99.90
7574;DHT22;3828;48.922;9.116;2022-08-19T12:51:54;26.50;99.90
7574;DHT22;3828;48.922;9.116;2022-08-19T12:54:21;24.50;99.90
7574;DHT22;3828;48.922;9.116;2022-08-19T12:56:47;25.40;99.90
7574;DHT22;3828;48.922;9.116;2022-08-19T12:59:14;24.30;99.90
7574;DHT22;3828;48.922;9.116;2022-08-19T13:01:43;25.30;99.90
7574;DHT22;3828;48.922;9.116;2022-08-19T13:04:10;24.20;99.90
7574;DHT22;3828;48.922;9.116;2022-08-19T13:06:39;25.00;99.90
7574;DHT22;3828;48.922;9.116;2022-08-19T13:09:06;28.00;99.90
7574;DHT22;3828;48.922;9.116;2022-08-19T13:11:33;24.00;99.90
7574;DHT22;3828;48.922;9.116;2022-08-19T13:14:01;24.90;99.90
7574;DHT22;3828;48.922;9.116;2022-08-19T13:16:28;24.40;99.90
7574;DHT22;3828;48.922;9.116;2022-08-19T13:18:56;24.00;99.90
7574;DHT22;3828;48.922;9.116;2022-08-19T13:21:25;24.90;99.90
7574;DHT22;3828;48.922;9.116;2022-08-19T13:23:54;24.10;99.90
7574;DHT22;3828;48.922;9.116;2022-08-19T13:26:21;26.40;99.90
7574;DHT22;3828;48.922;9.116;2022-08-19T13:28:47;24.10;99.90
7574;DHT22;3828;48.922;9.116;2022-08-19T13:31:34;25.70;99.90
7574;DHT22;3828;48.922;9.116;2022-08-19T13:34:26;25.40;99.90
7574;DHT22;3828;48.922;9.116;2022-08-19T13:36:53;23.90;99.90
7574;DHT22;3828;48.922;9.116;2022-08-19T13:39:21;23.90;99.90
7574;DHT22;3828;48.922;9.116;2022-08-19T13:41:49;23.80;99.90
7574;DHT22;3828;48.922;9.116;2022-08-19T13:44:16;23.90;99.90
7574;DHT22;3828;48.922;9.116;2022-08-19T13:46:44;24.00;99.90
7574;DHT22;3828;48.922;9.116;2022-08-19T13:49:12;23.90;99.90
7574;DHT22;3828;48.922;9.116;2022-08-19T13:51:41;23.90;99.90
7574;DHT22;3828;48.922;9.116;2022-08-19T13:54:08;24.00;99.90
7574;DHT22;3828;48.922;9.116;2022-08-19T13:56:40;24.20;99.90
7574;DHT22;3828;48.922;9.116;2022-08-19T13:59:07;24.30;99.90
7574;DHT22;3828;48.922;9.116;2022-08-19T14:01:34;26.60;99.90
7574;DHT22;3828;48.922;9.116;2022-08-19T14:04:01;24.50;99.90
7574;DHT22;3828;48.922;9.116;2022-08-19T14:06:28;24.60;99.90
7574;DHT22;3828;48.922;9.116;2022-08-19T14:08:55;24.80;99.90
7574;DHT22;3828;48.922;9.116;2022-08-19T14:11:21;27.30;99.90
7574;DHT22;3828;48.922;9.116;2022-08-19T14:13:50;26.60;99.90
7574;DHT22;3828;48.922;9.116;2022-08-19T14:16:17;25.40;99.90
7574;DHT22;3828;48.922;9.116;2022-08-19T14:18:44;25.80;99.90
7574;DHT22;3828;48.922;9.116;2022-08-19T14:21:16;26.10;99.90
7574;DHT22;3828;48.922;9.116;2022-08-19T14:23:43;26.60;99.90
7574;DHT22;3828;48.922;9.116;2022-08-19T14:26:13;27.00;99.90
7574;DHT22;3828;48.922;9.116;2022-08-19T14:28:41;27.70;99.90
7574;DHT22;3828;48.922;9.116;2022-08-19T14:31:10;27.40;99.90
7574;DHT22;3828;48.922;9.116;2022-08-19T14:33:37;27.60;99.90
7574;DHT22;3828;48.922;9.116;2022-08-19T14:36:04;27.20;99.90
7574;DHT22;3828;48.922;9.116;2022-08-19T14:38:31;27.10;99.90
7574;DHT22;3828;48.922;9.116;2022-08-19T14:41:17;27.10;99.90
7574;DHT22;3828;48.922;9.116;2022-08-19T14:43:45;28.40;99.90
7574;DHT22;3828;48.922;9.116;2022-08-19T14:46:14;27.70;99.90
7574;DHT22;3828;48.922;9.116;2022-08-19T14:48:41;26.50;99.90
7574;DHT22;3828;48.922;9.116;2022-08-19T14:51:09;26.40;99.90
7574;DHT22;3828;48.922;9.116;2022-08-19T14:53:36;27.90;99.90
7574;DHT22;3828;48.922;9.116;2022-08-19T14:56:08;26.40;99.90
7574;DHT22;3828;48.922;9.116;2022-08-19T14:58:35;26.60;99.90
7574;DHT22;3828;48.922;9.116;2022-08-19T15:01:02;29.00;99.90
7574;DHT22;3828;48.922;9.116;2022-08-19T15:03:31;26.50;99.90
7574;DHT22;3828;48.922;9.116;2022-08-19T15:05:59;28.40;99.90
7574;DHT22;3828;48.922;9.116;2022-08-19T15:08:28;27.10;99.90
7574;DHT22;3828;48.922;9.116;2022-08-19T15:10:56;26.50;99.90
7574;DHT22;3828;48.922;9.116;2022-08-19T15:13:23;27.20;99.90
7574;DHT22;3828;48.922;9.116;2022-08-19T15:15:52;26.60;99.90
7574;DHT22;3828;48.922;9.116;2022-08-19T15:18:19;26.70;99.90
7574;DHT22;3828;48.922;9.116;2022-08-19T15:20:49;26.60;99.90
7574;DHT22;3828;48.922;9.116;2022-08-19T15:23:17;26.40;99.90
7574;DHT22;3828;48.922;9.116;2022-08-19T15:25:45;26.30;99.90
7574;DHT22;3828;48.922;9.116;2022-08-19T15:28:12;27.10;99.90
7574;DHT22;3828;48.922;9.116;2022-08-19T15:30:42;26.10;99.90
7574;DHT22;3828;48.922;9.116;2022-08-19T15:33:10;26.30;99.90
7574;DHT22;3828;48.922;9.116;2022-08-19T15:35:40;26.00;99.90
7574;DHT22;3828;48.922;9.116;2022-08-19T15:38:11;26.00;99.90
7574;DHT22;3828;48.922;9.116;2022-08-19T15:40:39;28.60;99.90
7574;DHT22;3828;48.922;9.116;2022-08-19T15:43:06;26.00;99.90
7574;DHT22;3828;48.922;9.116;2022-08-19T15:45:32;26.00;99.90
7574;DHT22;3828;48.922;9.116;2022-08-19T15:48:00;26.00;99.90
7574;DHT22;3828;48.922;9.116;2022-08-19T15:50:28;26.20;99.90
7574;DHT22;3828;48.922;9.116;2022-08-19T15:53:02;26.60;99.90
7574;DHT22;3828;48.922;9.116;2022-08-19T15:55:34;25.60;99.90
7574;DHT22;3828;48.922;9.116;2022-08-19T15:58:04;26.50;99.90
7574;DHT22;3828;48.922;9.116;2022-08-19T16:00:49;25.40;99.90
7574;DHT22;3828;48.922;9.116;2022-08-19T16:03:33;25.30;99.90
7574;DHT22;3828;48.922;9.116;2022-08-19T16:06:18;25.10;99.90
7574;DHT22;3828;48.922;9.116;2022-08-19T16:08:55;25.30;99.90
7574;DHT22;3828;48.922;9.116;2022-08-19T16:11:26;24.60;99.90
7574;DHT22;3828;48.922;9.116;2022-08-19T16:13:56;27.10;99.90
7574;DHT22;3828;48.922;9.116;2022-08-19T16:16:24;24.30;99.90